Time;durP1;ratioP1;P1;durP2;ratioP2;P2;SDS_P1;SDS_P2;PMS_P1;PMS_P2;Temp;Humidity;BMP_temperature;BMP_pressure;BME280_temperature;BME280_humidity;BME280_pressure;Samples;Min_cycle;Max_cycle;Signal;HPM_P1;HPM_P2
2023/10/10 00:01:45;;;;;;;10.68;4.32;;;15.30;99.90;;;;;;5094101;28;20277;-75
2023/10/10 00:04:11;;;;;;;9.80;4.47;;;15.20;99.90;;;;;;5094059;28;20039;-75
2023/10/10 00:06:40;;;;;;;5.45;4.05;;;15.20;99.90;;;;;;5093986;28;20084;-75
2023/10/10 00:09:13;;;;;;;6.22;4.50;;;15.30;99.90;;;;;;5111469;28;20042;-75
2023/10/10 00:11:45;;;;;;;19.15;5.82;;;15.20;99.90;;;;;;5083657;28;20401;-75
2023/10/10 00:14:21;;;;;;;9.90;4.40;;;15.20;99.90;;;;;;5091806;28;20040;-75
2023/10/10 00:16:48;;;;;;;9.25;4.32;;;15.10;99.90;;;;;;5073457;28;20040;-75
2023/10/10 00:19:37;;;;;;;6.55;3.92;;;15.20;99.90;;;;;;5056946;28;20050;-75
2023/10/10 00:22:05;;;;;;;8.20;4.68;;;15.20;99.90;;;;;;5073548;28;20118;-75
2023/10/10 00:24:31;;;;;;;7.68;4.38;;;15.30;99.90;;;;;;5073903;28;20530;-74
2023/10/10 00:27:07;;;;;;;8.50;4.65;;;15.20;99.90;;;;;;5073512;28;20044;-74
2023/10/10 00:29:33;;;;;;;8.73;4.53;;;15.20;99.90;;;;;;5073709;28;20047;-75
2023/10/10 00:32:05;;;;;;;9.68;4.40;;;15.20;99.90;;;;;;5056735;28;20034;-75
2023/10/10 00:34:34;;;;;;;7.93;4.22;;;15.20;99.90;;;;;;5073746;28;20461;-75
2023/10/10 00:37:08;;;;;;;8.80;4.30;;;15.20;99.90;;;;;;5056708;28;20043;-75
2023/10/10 00:39:36;;;;;;;8.25;4.45;;;15.20;99.90;;;;;;5073615;28;20430;-75
2023/10/10 00:42:04;;;;;;;8.07;4.22;;;15.20;99.90;;;;;;5091385;28;20044;-75
2023/10/10 00:44:30;;;;;;;7.35;4.53;;;15.20;99.90;;;;;;5091488;28;20059;-75
2023/10/10 00:46:57;;;;;;;7.55;4.57;;;15.20;99.90;;;;;;5073329;28;20036;-75
2023/10/10 00:49:25;;;;;;;11.00;5.63;;;15.20;99.90;;;;;;5073263;28;20079;-75
2023/10/10 00:51:56;;;;;;;7.55;4.38;;;15.20;99.90;;;;;;5073177;28;20044;-75
2023/10/10 00:54:30;;;;;;;8.10;4.32;;;15.30;99.90;;;;;;5073225;28;20495;-75
2023/10/10 00:56:57;;;;;;;9.93;4.10;;;15.20;99.90;;;;;;5073358;28;20039;-75
2023/10/10 00:59:35;;;;;;;8.25;3.92;;;15.20;99.90;;;;;;5073212;28;20040;-75
2023/10/10 01:02:07;;;;;;;11.60;5.07;;;15.20;99.90;;;;;;5072899;28;20044;-75
2023/10/10 01:04:39;;;;;;;13.23;5.15;;;15.20;99.90;;;;;;5073428;28;20051;-75
2023/10/10 01:07:08;;;;;;;13.15;4.00;;;15.10;99.90;;;;;;5056554;28;20040;-75
2023/10/10 01:09:39;;;;;;;10.65;4.00;;;15.20;99.90;;;;;;5073004;28;20048;-75
2023/10/10 01:12:05;;;;;;;8.82;3.90;;;15.20;99.90;;;;;;5056539;28;20032;-75
2023/10/10 01:14:31;;;;;;;11.00;4.20;;;15.10;99.90;;;;;;5073334;28;20523;-75
2023/10/10 01:16:58;;;;;;;7.30;4.60;;;15.10;99.90;;;;;;5073018;28;20047;-75
2023/10/10 01:19:29;;;;;;;8.18;4.72;;;15.10;99.90;;;;;;5073792;28;20036;-75
2023/10/10 01:21:58;;;;;;;8.70;4.47;;;15.00;99.90;;;;;;5059952;28;20036;-75
2023/10/10 01:24:30;;;;;;;6.22;4.25;;;15.10;99.90;;;;;;5060402;28;20044;-75
2023/10/10 01:27:03;;;;;;;10.38;4.00;;;15.00;99.90;;;;;;5076588;28;20040;-75
2023/10/10 01:29:40;;;;;;;11.60;4.75;;;15.00;99.90;;;;;;5076510;28;20499;-75
2023/10/10 01:32:06;;;;;;;6.25;4.78;;;15.00;99.90;;;;;;5076486;28;20040;-75
2023/10/10 01:34:32;;;;;;;11.82;6.13;;;15.00;99.90;;;;;;5076485;28;20042;-75
2023/10/10 01:37:13;;;;;;;14.05;5.63;;;15.00;99.90;;;;;;5076557;28;20123;-75
2023/10/10 01:40:14;;;;;;;8.43;4.63;;;15.00;99.90;;;;;;5076644;28;20086;-75
2023/10/10 01:42:45;;;;;;;8.05;5.25;;;14.90;99.90;;;;;;5059787;28;20035;-75
2023/10/10 01:45:17;;;;;;;9.77;5.05;;;14.90;99.90;;;;;;5076604;28;20457;-74
2023/10/10 01:47:56;;;;;;;9.60;4.78;;;15.00;99.90;;;;;;5059579;28;20044;-75
2023/10/10 01:50:22;;;;;;;9.60;5.28;;;14.90;99.90;;;;;;5059524;28;20048;-75
2023/10/10 01:52:47;;;;;;;8.23;5.07;;;15.00;99.90;;;;;;5075818;28;20042;-75
2023/10/10 01:55:16;;;;;;;11.05;6.78;;;15.00;99.90;;;;;;5076223;28;20075;-75
2023/10/10 01:57:42;;;;;;;10.93;5.80;;;15.00;99.90;;;;;;5075798;28;20089;-75
2023/10/10 02:00:19;;;;;;;8.38;5.57;;;15.10;99.90;;;;;;5075660;28;20438;-75
2023/10/10 02:02:49;;;;;;;14.38;7.07;;;15.00;99.90;;;;;;5075384;28;20040;-75
2023/10/10 02:05:29;;;;;;;14.48;7.00;;;15.10;99.90;;;;;;5075713;28;20052;-75
2023/10/10 02:07:57;;;;;;;11.60;5.90;;;15.10;99.90;;;;;;5075854;28;20032;-75
2023/10/10 02:10:26;;;;;;;11.02;6.63;;;15.10;99.90;;;;;;5075624;28;20043;-75
2023/10/10 02:12:52;;;;;;;11.25;6.47;;;15.00;99.90;;;;;;5075648;28;20043;-75
2023/10/10 02:15:18;;;;;;;9.98;6.38;;;15.10;99.90;;;;;;5075451;28;20044;-75
2023/10/10 02:17:51;;;;;;;15.02;6.55;;;15.00;99.90;;;;;;5075665;28;20089;-75
2023/10/10 02:28:04;;;;;;;10.23;6.75;;;15.10;99.90;;;;;;5075553;28;20056;-76
2023/10/10 02:30:52;;;;;;;13.65;7.47;;;15.10;99.90;;;;;;5074869;28;20044;-75
2023/10/10 02:33:31;;;;;;;13.48;6.90;;;15.20;99.90;;;;;;5075040;28;20048;-75
2023/10/10 02:35:57;;;;;;;11.63;6.68;;;15.00;99.90;;;;;;5075134;28;20122;-75
2023/10/10 02:38:25;;;;;;;9.23;6.28;;;15.10;99.90;;;;;;5075032;28;20036;-76
2023/10/10 02:40:56;;;;;;;14.88;7.50;;;15.20;99.90;;;;;;5093294;28;20051;-75
2023/10/10 02:43:33;;;;;;;11.23;6.75;;;15.10;99.90;;;;;;5093230;28;20499;-75
2023/10/10 02:46:00;;;;;;;14.18;6.90;;;15.10;99.90;;;;;;5075252;28;20105;-75
2023/10/10 02:48:27;;;;;;;10.63;6.78;;;15.20;99.90;;;;;;5075018;28;20076;-75
2023/10/10 02:50:53;;;;;;;12.30;7.07;;;15.20;99.90;;;;;;5074572;28;20052;-75
2023/10/10 02:53:19;;;;;;;13.68;7.38;;;15.10;99.90;;;;;;5075171;28;20059;-76
2023/10/10 02:55:50;;;;;;;9.35;6.60;;;15.20;99.90;;;;;;5092506;28;20044;-75
2023/10/10 02:58:27;;;;;;;10.82;6.07;;;15.20;99.90;;;;;;5074745;28;20032;-76
2023/10/10 03:00:57;;;;;;;8.13;6.07;;;15.20;99.90;;;;;;5074521;28;20036;-76
2023/10/10 03:03:26;;;;;;;7.47;5.65;;;15.10;99.90;;;;;;5092744;28;20040;-75
2023/10/10 03:05:51;;;;;;;8.50;6.28;;;15.20;99.90;;;;;;5074716;28;20061;-76
2023/10/10 03:08:34;;;;;;;12.85;7.40;;;15.30;99.90;;;;;;5074336;28;20550;-76
2023/10/10 03:11:02;;;;;;;10.02;5.50;;;15.30;99.90;;;;;;5092483;28;20043;-75
2023/10/10 03:13:36;;;;;;;11.27;5.68;;;15.30;99.90;;;;;;5058337;28;20048;-75
2023/10/10 03:21:45;;;;;;;11.90;6.10;;;15.20;99.90;;;;;;5074412;28;20126;-76
2023/10/10 03:24:29;;;;;;;15.93;5.80;;;15.20;99.90;;;;;;5074140;28;20044;-75
2023/10/10 03:29:49;;;;;;;10.10;5.28;;;15.30;99.90;;;;;;5074415;28;20130;-78
2023/10/10 03:34:57;;;;;;;9.57;5.75;;;15.30;99.90;;;;;;5073047;28;20048;-77
2023/10/10 03:40:09;;;;;;;8.05;5.18;;;15.20;99.90;;;;;;5073853;28;20131;-78
2023/10/10 05:24:24;;;;;;;16.63;9.98;;;15.20;99.90;;;;;;5097021;28;20040;-77
2023/10/10 05:26:49;;;;;;;22.35;10.02;;;15.20;99.90;;;;;;5080264;28;20407;-75
2023/10/10 05:29:24;;;;;;;20.60;11.13;;;15.20;99.90;;;;;;5096896;28;20044;-75
2023/10/10 05:31:51;;;;;;;18.70;11.50;;;15.40;99.90;;;;;;5079826;28;20043;-75
2023/10/10 05:34:22;;;;;;;20.67;12.82;;;15.30;99.90;;;;;;5096725;28;20135;-75
2023/10/10 05:36:48;;;;;;;25.13;12.82;;;15.40;99.90;;;;;;5079679;28;20042;-75
2023/10/10 05:39:21;;;;;;;25.52;14.02;;;15.30;99.90;;;;;;5096480;28;20589;-75
2023/10/10 05:41:54;;;;;;;26.70;14.70;;;15.30;99.90;;;;;;5096661;28;20046;-75
2023/10/10 05:44:21;;;;;;;22.05;13.93;;;15.40;99.90;;;;;;5096581;28;20046;-75
2023/10/10 05:46:47;;;;;;;24.15;14.60;;;15.30;99.90;;;;;;5096465;28;20089;-75
2023/10/10 05:49:13;;;;;;;25.95;14.27;;;15.20;99.90;;;;;;5096388;28;20039;-75
2023/10/10 05:51:40;;;;;;;24.92;15.68;;;15.30;99.90;;;;;;5096601;28;20051;-75
2023/10/10 05:54:07;;;;;;;24.70;15.52;;;15.40;99.90;;;;;;5096201;28;20079;-75
2023/10/10 05:56:34;;;;;;;28.52;16.15;;;15.30;99.90;;;;;;5095711;28;20096;-75
2023/10/10 05:59:02;;;;;;;24.27;15.27;;;15.30;99.90;;;;;;5095894;28;20044;-75
2023/10/10 06:01:30;;;;;;;27.88;15.45;;;15.30;99.90;;;;;;5095653;28;20111;-75
2023/10/10 06:03:56;;;;;;;31.67;16.50;;;15.20;99.90;;;;;;5079562;28;20039;-75
2023/10/10 06:06:22;;;;;;;24.27;15.23;;;15.40;99.90;;;;;;5094701;28;20047;-72
2023/10/10 06:08:53;;;;;;;27.15;14.15;;;15.20;99.90;;;;;;5095906;28;20039;-72
2023/10/10 06:11:19;;;;;;;23.20;13.73;;;15.20;99.90;;;;;;5095532;28;20077;-72
2023/10/10 06:13:46;;;;;;;27.23;13.95;;;15.30;99.90;;;;;;5096285;28;20115;-72
2023/10/10 06:16:14;;;;;;;23.83;14.30;;;15.30;99.90;;;;;;5095779;28;20457;-73
2023/10/10 06:18:46;;;;;;;24.15;14.32;;;15.20;99.90;;;;;;5095889;28;20495;-73
2023/10/10 06:21:12;;;;;;;22.00;12.77;;;15.20;99.90;;;;;;5078605;28;20036;-74
2023/10/10 06:23:41;;;;;;;22.35;13.10;;;15.30;99.90;;;;;;5095866;28;20043;-73
2023/10/10 06:26:07;;;;;;;24.70;13.27;;;15.30;99.90;;;;;;5078691;28;20040;-73
2023/10/10 06:28:45;;;;;;;21.27;13.15;;;15.20;99.90;;;;;;5113784;28;20044;-73
2023/10/10 06:31:19;;;;;;;22.08;14.60;;;15.20;99.90;;;;;;5107998;28;20558;-73
2023/10/10 06:33:52;;;;;;;22.75;13.23;;;15.20;99.90;;;;;;5095893;28;20448;-74
2023/10/10 06:39:18;;;;;;;24.38;14.48;;;15.20;99.90;;;;;;5095406;28;20502;-74
2023/10/10 06:41:51;;;;;;;23.25;13.90;;;15.30;99.90;;;;;;5095607;28;20044;-73
2023/10/10 06:44:31;;;;;;;24.70;15.35;;;15.20;99.90;;;;;;5094737;28;20067;-74
2023/10/10 06:46:58;;;;;;;25.60;14.40;;;15.30;99.90;;;;;;5093166;28;20071;-74
2023/10/10 06:49:23;;;;;;;26.67;15.52;;;15.20;99.90;;;;;;5093239;28;20155;-74
2023/10/10 06:51:50;;;;;;;31.63;15.63;;;15.40;99.90;;;;;;5074844;28;20089;-74
2023/10/10 06:54:28;;;;;;;29.75;17.70;;;15.30;99.90;;;;;;5075006;28;20051;-74
2023/10/10 06:59:29;;;;;;;29.67;17.10;;;15.40;99.90;;;;;;5075040;28;20048;-74
2023/10/10 07:02:20;;;;;;;26.48;17.10;;;15.60;99.90;;;;;;5074721;28;20036;-74
2023/10/10 07:04:41;;;;;;;34.92;17.92;;;15.60;99.90;;;;;;5074263;28;20051;-74
2023/10/10 07:07:08;;;;;;;32.58;17.40;;;15.50;99.90;;;;;;5074497;28;20093;-74
2023/10/10 07:09:36;;;;;;;31.23;18.13;;;15.70;99.90;;;;;;5074048;28;20079;-74
2023/10/10 07:12:09;;;;;;;34.53;17.83;;;15.60;99.90;;;;;;5074438;28;20069;-74
2023/10/10 07:14:40;;;;;;;29.80;17.60;;;15.70;99.90;;;;;;5074666;28;20039;-74
2023/10/10 07:17:11;;;;;;;32.30;17.98;;;15.80;99.90;;;;;;5073956;28;20040;-74
2023/10/10 07:22:25;;;;;;;30.58;16.88;;;15.80;99.90;;;;;;5074364;28;20040;-74
2023/10/10 07:25:06;;;;;;;33.10;16.58;;;15.70;99.90;;;;;;5092449;28;20097;-74
2023/10/10 07:27:32;;;;;;;32.13;18.58;;;15.90;99.90;;;;;;5074161;28;20521;-74
2023/10/10 07:29:58;;;;;;;27.27;16.20;;;15.90;99.90;;;;;;5074147;28;20075;-74
2023/10/10 07:32:30;;;;;;;31.92;17.08;;;16.00;99.90;;;;;;5074489;28;20086;-74
2023/10/10 07:34:56;;;;;;;28.92;16.17;;;16.20;99.90;;;;;;5089351;28;20046;-72
2023/10/10 07:37:27;;;;;;;29.70;17.33;;;16.20;99.90;;;;;;5111802;28;20043;-74
2023/10/10 07:40:19;;;;;;;30.52;16.25;;;16.30;99.90;;;;;;5111889;28;20047;-74
2023/10/10 07:42:49;;;;;;;25.52;14.82;;;16.30;99.90;;;;;;5112594;28;20059;-74
2023/10/10 07:45:26;;;;;;;22.40;15.85;;;16.40;99.90;;;;;;5094613;28;20035;-74
2023/10/10 07:50:34;;;;;;;25.10;14.63;;;16.50;99.90;;;;;;5093915;28;20040;-74
2023/10/10 07:53:06;;;;;;;32.17;17.35;;;16.40;99.90;;;;;;5094186;28;20040;-74
2023/10/10 07:55:34;;;;;;;28.15;17.38;;;16.50;99.90;;;;;;5094138;28;20102;-74
2023/10/10 07:58:00;;;;;;;30.80;19.23;;;16.60;99.90;;;;;;5094130;28;20067;-74
2023/10/10 08:00:35;;;;;;;36.42;21.25;;;16.60;99.90;;;;;;5094109;28;20459;-74
2023/10/10 08:03:02;;;;;;;37.60;22.63;;;16.80;99.90;;;;;;5094363;28;20039;-74
2023/10/10 08:05:29;;;;;;;40.83;22.48;;;16.70;99.90;;;;;;5093764;28;20036;-74
2023/10/10 08:07:55;;;;;;;43.15;24.50;;;16.70;99.90;;;;;;5093854;28;20050;-74
2023/10/10 08:10:37;;;;;;;49.40;25.05;;;16.80;99.90;;;;;;5111947;28;20043;-74
2023/10/10 08:13:10;;;;;;;40.42;23.85;;;16.80;99.90;;;;;;5093967;28;20056;-74
2023/10/10 08:21:15;;;;;;;42.22;25.52;;;16.80;99.90;;;;;;5076188;28;20160;-73
2023/10/10 08:23:49;;;;;;;43.45;25.60;;;17.00;99.90;;;;;;5112178;28;20032;-73
2023/10/10 08:26:19;;;;;;;40.88;23.60;;;17.00;99.90;;;;;;5093134;28;20075;-73
2023/10/10 08:28:45;;;;;;;45.03;23.77;;;17.00;99.90;;;;;;5093774;28;20056;-73
2023/10/10 08:31:13;;;;;;;40.63;24.58;;;17.00;99.90;;;;;;5115896;28;20036;-73
2023/10/10 08:33:46;;;;;;;38.45;24.08;;;16.90;99.90;;;;;;5116238;28;20044;-73
2023/10/10 08:36:23;;;;;;;46.72;24.95;;;17.10;99.90;;;;;;5097779;28;20062;-73
2023/10/10 08:38:49;;;;;;;45.00;23.83;;;17.00;99.90;;;;;;5098191;28;20023;-73
2023/10/10 08:41:19;;;;;;;41.17;23.83;;;17.10;99.90;;;;;;5116151;28;20176;-73
2023/10/10 08:43:53;;;;;;;48.05;26.02;;;17.10;99.90;;;;;;5080979;28;20036;-73
2023/10/10 08:46:23;;;;;;;47.88;29.02;;;17.20;99.90;;;;;;5116149;28;20152;-73
2023/10/10 08:48:49;;;;;;;53.45;29.63;;;17.20;99.90;;;;;;5097653;28;20085;-73
2023/10/10 08:51:15;;;;;;;47.38;27.20;;;17.40;99.90;;;;;;5097356;28;20046;-73
2023/10/10 08:53:40;;;;;;;43.72;27.58;;;17.40;99.90;;;;;;5097669;28;20122;-73
2023/10/10 08:56:06;;;;;;;46.70;27.98;;;17.50;99.90;;;;;;5097396;28;20146;-73
2023/10/10 08:58:32;;;;;;;47.15;29.52;;;17.50;99.90;;;;;;5097524;28;20031;-73
2023/10/10 09:01:00;;;;;;;50.25;28.52;;;17.60;99.90;;;;;;5097518;28;20027;-73
2023/10/10 09:03:26;;;;;;;48.88;31.10;;;17.60;99.90;;;;;;5097419;28;20028;-73
2023/10/10 09:05:52;;;;;;;50.17;30.52;;;17.60;99.90;;;;;;5097242;28;20054;-73
2023/10/10 09:08:26;;;;;;;45.08;29.30;;;17.60;99.90;;;;;;5080336;28;20075;-73
2023/10/10 09:10:56;;;;;;;48.58;30.38;;;17.70;99.90;;;;;;5097111;28;20518;-73
2023/10/10 09:13:21;;;;;;;48.03;28.85;;;17.80;99.90;;;;;;5097210;28;20079;-73
2023/10/10 09:15:54;;;;;;;53.67;30.90;;;17.90;99.90;;;;;;5096907;28;20071;-73
2023/10/10 09:18:23;;;;;;;48.92;30.60;;;18.10;99.90;;;;;;5097022;28;20067;-73
2023/10/10 09:20:55;;;;;;;55.58;31.98;;;18.30;99.90;;;;;;5096879;28;20063;-73
2023/10/10 09:23:32;;;;;;;51.75;29.92;;;18.50;99.90;;;;;;5097097;28;20036;-73
2023/10/10 09:28:58;;;;;;;48.08;28.73;;;18.70;99.90;;;;;;5096947;28;20059;-73
2023/10/10 09:31:31;;;;;;;46.33;28.75;;;18.70;99.90;;;;;;5081518;28;20059;-73
2023/10/10 09:33:57;;;;;;;53.38;29.90;;;18.50;99.90;;;;;;5075635;28;20040;-73
2023/10/10 09:36:27;;;;;;;47.92;29.45;;;18.50;99.90;;;;;;5081377;28;20040;-73
2023/10/10 09:39:14;;;;;;;50.05;29.85;;;18.40;99.90;;;;;;5077539;28;20050;-74
2023/10/10 09:47:13;;;;;;;50.00;30.85;;;18.50;99.90;;;;;;5097601;28;20044;-73
2023/10/10 09:50:00;;;;;;;50.22;28.92;;;18.50;99.90;;;;;;5114584;28;20043;-73
2023/10/10 09:58:15;;;;;;;48.60;29.30;;;18.50;99.90;;;;;;5114673;28;20051;-73
2023/10/10 10:09:09;;;;;;;54.67;31.10;;;18.40;99.90;;;;;;5114553;28;20051;-73
2023/10/10 10:11:56;;;;;;;50.60;29.88;;;18.40;99.90;;;;;;5114058;28;20086;-73
2023/10/10 10:14:35;;;;;;;49.83;29.13;;;18.50;99.90;;;;;;5091118;28;20519;-73
2023/10/10 10:17:47;;;;;;;50.10;28.23;;;18.40;99.90;;;;;;5085263;28;20063;-73
2023/10/10 10:20:22;;;;;;;49.78;29.23;;;18.50;99.90;;;;;;5095666;28;20057;-73
2023/10/10 10:22:59;;;;;;;43.42;26.85;;;18.40;99.90;;;;;;5096047;28;20039;-73
2023/10/10 10:25:28;;;;;;;49.00;26.55;;;18.50;99.90;;;;;;5095834;28;20409;-73
2023/10/10 10:28:10;;;;;;;44.63;25.15;;;18.50;99.90;;;;;;5114207;28;20035;-73
2023/10/10 10:30:50;;;;;;;46.63;24.83;;;18.60;99.90;;;;;;5095559;28;20494;-73
2023/10/10 10:33:23;;;;;;;47.78;26.00;;;18.60;99.90;;;;;;5095688;28;20049;-73
2023/10/10 10:35:57;;;;;;;47.75;25.67;;;18.70;99.90;;;;;;5113743;28;20044;-73
2023/10/10 10:38:23;;;;;;;38.15;24.35;;;18.80;99.90;;;;;;5079067;28;20040;-73
2023/10/10 10:41:15;;;;;;;38.22;23.77;;;18.70;99.90;;;;;;5095693;28;20039;-73
2023/10/10 10:43:51;;;;;;;43.30;24.52;;;18.80;99.90;;;;;;5095629;28;20044;-73
2023/10/10 10:46:27;;;;;;;40.90;24.90;;;18.80;99.90;;;;;;5095344;28;20035;-73
2023/10/10 10:49:02;;;;;;;39.85;23.45;;;18.80;99.90;;;;;;5095319;28;20035;-73
2023/10/10 10:51:41;;;;;;;41.78;23.60;;;18.90;99.90;;;;;;5094966;28;20119;-73
2023/10/10 10:54:07;;;;;;;43.08;24.02;;;19.00;99.90;;;;;;5113389;28;20511;-73
2023/10/10 10:59:12;;;;;;;32.05;21.60;;;19.00;99.90;;;;;;5094965;28;20097;-73
2023/10/10 11:01:47;;;;;;;40.90;23.42;;;19.00;99.90;;;;;;5095071;28;20552;-73
2023/10/10 11:04:25;;;;;;;38.08;22.98;;;19.10;99.90;;;;;;5095218;28;20093;-73
2023/10/10 11:07:05;;;;;;;35.65;21.38;;;19.10;99.90;;;;;;5113268;28;20046;-73
2023/10/10 11:09:34;;;;;;;38.20;21.73;;;19.10;99.90;;;;;;5074675;28;20706;-73
2023/10/10 11:12:02;;;;;;;37.97;20.45;;;19.10;99.90;;;;;;5060969;28;20046;-73
2023/10/10 11:14:44;;;;;;;36.30;21.48;;;19.20;99.90;;;;;;5095157;28;20043;-73
2023/10/10 11:17:17;;;;;;;36.20;21.15;;;19.20;99.90;;;;;;5094813;28;20039;-73
2023/10/10 11:19:46;;;;;;;35.42;22.15;;;19.30;99.90;;;;;;5077990;28;20039;-74
2023/10/10 11:22:24;;;;;;;38.22;22.20;;;19.30;99.90;;;;;;5095082;28;20138;-73
2023/10/10 11:25:04;;;;;;;42.97;22.90;;;19.40;99.90;;;;;;5094967;28;20043;-73
2023/10/10 11:27:32;;;;;;;37.92;21.48;;;19.40;99.90;;;;;;5094897;28;20096;-74
2023/10/10 11:30:03;;;;;;;37.78;22.88;;;19.40;99.90;;;;;;5077367;28;20089;-73
2023/10/10 11:32:46;;;;;;;37.17;22.85;;;19.30;99.90;;;;;;5094565;28;20403;-73
2023/10/10 11:35:22;;;;;;;34.55;20.50;;;19.40;99.90;;;;;;5094437;28;20495;-73
2023/10/10 11:37:59;;;;;;;37.80;21.00;;;19.40;99.90;;;;;;5094413;28;20051;-73
2023/10/10 11:40:36;;;;;;;44.72;22.38;;;19.30;99.90;;;;;;5112448;28;20407;-73
2023/10/10 11:43:12;;;;;;;39.97;21.77;;;19.50;99.90;;;;;;5112667;28;20078;-73
2023/10/10 11:45:53;;;;;;;34.90;21.70;;;19.60;99.90;;;;;;5094088;28;20048;-73
2023/10/10 11:48:18;;;;;;;35.33;20.05;;;19.70;99.90;;;;;;5094162;28;20082;-73
2023/10/10 11:50:52;;;;;;;35.22;20.90;;;19.80;99.90;;;;;;5094233;28;20083;-73
2023/10/10 11:53:27;;;;;;;29.58;19.30;;;19.80;99.90;;;;;;5094303;28;20538;-73
2023/10/10 11:55:54;;;;;;;38.45;19.55;;;19.90;99.90;;;;;;5093975;28;20040;-73
2023/10/10 11:58:36;;;;;;;34.10;20.23;;;19.90;99.90;;;;;;5112379;28;20437;-73
2023/10/10 12:01:10;;;;;;;30.50;16.67;;;19.90;99.90;;;;;;5093755;28;20027;-73
2023/10/10 12:06:05;;;;;;;33.50;19.00;;;20.00;99.90;;;;;;5093830;28;20126;-73
2023/10/10 12:08:30;;;;;;;32.25;18.15;;;20.10;99.90;;;;;;5093895;28;20032;-73
2023/10/10 12:11:11;;;;;;;34.03;18.58;;;20.20;99.90;;;;;;5077253;28;20093;-73
2023/10/10 12:13:37;;;;;;;23.33;15.98;;;20.20;99.90;;;;;;5093989;28;20044;-73
2023/10/10 12:16:07;;;;;;;36.08;17.90;;;20.20;99.90;;;;;;5093483;28;20050;-73
2023/10/10 12:18:34;;;;;;;28.27;16.77;;;20.30;99.90;;;;;;5094326;28;20111;-73
2023/10/10 12:21:02;;;;;;;26.92;16.42;;;20.30;99.90;;;;;;5112011;28;20035;-73
2023/10/10 12:23:31;;;;;;;28.67;16.92;;;20.30;99.90;;;;;;5094161;28;20031;-73
2023/10/10 12:25:59;;;;;;;31.05;18.48;;;20.30;99.90;;;;;;5111964;28;20456;-73
2023/10/10 12:28:25;;;;;;;34.13;18.52;;;20.30;99.90;;;;;;5093724;28;20050;-73
2023/10/10 12:30:52;;;;;;;31.00;17.60;;;20.20;99.90;;;;;;5111922;28;20074;-73
2023/10/10 12:33:19;;;;;;;34.47;18.52;;;20.20;99.90;;;;;;5093957;28;20459;-73
2023/10/10 12:35:49;;;;;;;28.52;16.92;;;20.10;99.90;;;;;;5093819;28;20065;-73
2023/10/10 12:38:15;;;;;;;33.00;19.65;;;20.20;99.90;;;;;;5111946;28;20111;-73
2023/10/10 12:40:43;;;;;;;29.25;17.58;;;20.20;99.90;;;;;;5111610;28;20546;-73
2023/10/10 12:43:11;;;;;;;27.60;16.98;;;20.30;99.90;;;;;;5112035;28;20043;-73
2023/10/10 12:45:37;;;;;;;33.55;17.05;;;20.30;99.90;;;;;;5111691;28;20075;-73
2023/10/10 12:48:04;;;;;;;31.85;19.55;;;20.30;99.90;;;;;;5076219;28;20091;-73
2023/10/10 12:50:32;;;;;;;27.92;17.73;;;20.30;99.90;;;;;;5093547;28;20047;-73
2023/10/10 12:53:19;;;;;;;34.47;17.92;;;20.30;99.90;;;;;;5093469;28;20043;-73
2023/10/10 12:55:48;;;;;;;33.25;19.40;;;20.30;99.90;;;;;;5076637;28;20039;-73
2023/10/10 12:58:20;;;;;;;33.60;20.42;;;20.20;99.90;;;;;;5093531;28;20035;-73
2023/10/10 13:00:51;;;;;;;29.50;18.17;;;20.10;99.90;;;;;;5111601;28;20047;-73
2023/10/10 13:03:27;;;;;;;38.30;20.00;;;20.00;99.90;;;;;;5093380;28;20055;-73
2023/10/10 13:06:00;;;;;;;32.97;18.40;;;20.10;99.90;;;;;;5111408;28;20395;-73
2023/10/10 13:08:38;;;;;;;;;;;20.00;99.90;;;;;;5093711;28;20163;-73
2023/10/10 13:11:14;;;;;;;32.67;19.58;;;20.00;99.90;;;;;;5093345;28;20283;-73
2023/10/10 13:13:48;;;;;;;34.13;18.95;;;20.10;99.90;;;;;;5093486;28;20032;-73
2023/10/10 13:18:59;;;;;;;29.60;17.15;;;20.20;99.90;;;;;;5115471;28;20118;-73
2023/10/10 13:21:24;;;;;;;26.77;17.67;;;20.20;99.90;;;;;;5097252;28;20547;-73
2023/10/10 13:23:51;;;;;;;26.98;16.48;;;20.20;99.90;;;;;;5097051;28;20040;-73
2023/10/10 13:26:17;;;;;;;29.23;17.20;;;20.10;99.90;;;;;;5097059;28;20066;-73
2023/10/10 13:28:46;;;;;;;26.27;14.82;;;20.10;99.90;;;;;;5096985;28;20036;-73
2023/10/10 13:31:17;;;;;;;26.70;15.52;;;20.10;99.90;;;;;;5114914;28;20040;-74
2023/10/10 13:33:43;;;;;;;25.58;16.73;;;20.20;99.90;;;;;;5115343;28;20044;-73
2023/10/10 13:36:15;;;;;;;25.92;15.75;;;20.20;99.90;;;;;;5096864;28;20419;-73
2023/10/10 13:38:49;;;;;;;27.25;15.75;;;20.20;99.90;;;;;;5079729;28;20039;-73
2023/10/10 13:41:19;;;;;;;26.98;16.50;;;20.00;99.90;;;;;;5114979;28;20123;-73
2023/10/10 13:43:59;;;;;;;28.15;16.15;;;20.00;99.90;;;;;;5096675;28;20122;-73
2023/10/10 13:46:27;;;;;;;26.38;15.20;;;19.80;99.90;;;;;;5096516;28;20574;-73
2023/10/10 13:48:53;;;;;;;26.52;16.02;;;19.90;99.90;;;;;;5114800;28;20122;-73
2023/10/10 13:51:18;;;;;;;27.23;15.88;;;19.80;99.90;;;;;;5096319;28;20098;-73
2023/10/10 13:53:46;;;;;;;26.73;17.17;;;19.80;99.90;;;;;;5114911;28;20067;-73
2023/10/10 13:56:16;;;;;;;24.60;14.88;;;19.70;99.90;;;;;;5078415;28;20085;-73
2023/10/10 13:58:51;;;;;;;25.08;15.82;;;19.70;99.90;;;;;;5096032;28;20040;-73
2023/10/10 14:01:36;;;;;;;26.00;16.00;;;19.70;99.90;;;;;;5096192;28;20082;-73
2023/10/10 14:04:13;;;;;;;24.67;15.05;;;19.60;99.90;;;;;;5114480;28;20047;-73
2023/10/10 14:06:45;;;;;;;25.95;15.60;;;19.60;99.90;;;;;;5095735;28;20044;-73
2023/10/10 14:09:11;;;;;;;23.70;14.63;;;19.70;99.90;;;;;;5096111;28;20039;-73
2023/10/10 14:11:38;;;;;;;22.25;13.73;;;19.70;99.90;;;;;;5096087;28;20075;-73
2023/10/10 14:14:06;;;;;;;26.80;14.88;;;19.70;99.90;;;;;;5114443;28;20406;-73
2023/10/10 14:16:32;;;;;;;24.52;14.07;;;19.70;99.90;;;;;;5108378;22;20044;-73
2023/10/10 14:19:01;;;;;;;21.55;13.63;;;19.80;99.90;;;;;;5075652;28;20507;-73
2023/10/10 14:21:27;;;;;;;21.85;13.98;;;19.80;99.90;;;;;;5093764;28;20040;-73
2023/10/10 14:23:59;;;;;;;24.05;14.38;;;19.90;99.90;;;;;;5093762;28;20068;-73
2023/10/10 14:26:30;;;;;;;18.98;11.60;;;19.90;99.90;;;;;;5074933;28;20067;-73
2023/10/10 14:28:58;;;;;;;21.42;13.05;;;19.90;99.90;;;;;;5092801;28;20415;-73
2023/10/10 14:31:31;;;;;;;21.33;13.25;;;19.90;99.90;;;;;;5093608;28;20047;-73
2023/10/10 14:34:00;;;;;;;25.10;14.70;;;20.00;99.90;;;;;;5093738;28;20418;-73
2023/10/10 14:36:30;;;;;;;25.48;14.40;;;19.90;99.90;;;;;;5093206;28;20115;-73
2023/10/10 14:38:57;;;;;;;25.67;15.55;;;19.80;99.90;;;;;;5075973;28;20407;-73
2023/10/10 14:41:30;;;;;;;26.45;16.33;;;19.80;99.90;;;;;;5075515;28;20039;-73
2023/10/10 14:44:00;;;;;;;29.85;16.58;;;19.90;99.90;;;;;;5093588;28;20043;-73
2023/10/10 14:46:31;;;;;;;27.23;17.40;;;19.80;99.90;;;;;;5075471;28;20619;-73
2023/10/10 14:49:01;;;;;;;29.95;16.73;;;19.80;99.90;;;;;;5093231;28;20066;-73
2023/10/10 14:51:33;;;;;;;28.52;16.13;;;19.80;99.90;;;;;;5093208;28;20036;-74
2023/10/10 14:54:06;;;;;;;28.00;16.27;;;19.90;99.90;;;;;;5075160;28;20044;-78
2023/10/10 14:56:35;;;;;;;27.13;16.90;;;19.90;99.90;;;;;;5074454;28;20114;-77
2023/10/10 14:59:10;;;;;;;26.50;16.38;;;20.00;99.90;;;;;;5074935;28;20052;-77
2023/10/10 15:01:36;;;;;;;24.63;17.00;;;20.10;99.90;;;;;;5074761;28;20048;-77
2023/10/10 15:04:06;;;;;;;25.90;16.02;;;20.10;99.90;;;;;;5074937;28;20510;-77
2023/10/10 15:06:33;;;;;;;25.95;15.77;;;20.10;99.90;;;;;;5075010;28;20395;-78
2023/10/10 15:09:00;;;;;;;27.40;16.08;;;20.20;99.90;;;;;;5074549;28;20127;-77
2023/10/10 15:11:29;;;;;;;24.05;14.65;;;20.20;99.90;;;;;;5092851;28;20114;-77
2023/10/10 15:13:55;;;;;;;24.52;14.57;;;20.20;99.90;;;;;;5092754;28;20047;-76
2023/10/10 15:16:23;;;;;;;29.00;17.45;;;20.10;99.90;;;;;;5074494;28;20487;-78
2023/10/10 15:18:52;;;;;;;24.98;16.00;;;20.20;99.90;;;;;;5074857;28;20048;-77
2023/10/10 15:21:21;;;;;;;26.55;14.35;;;20.10;99.90;;;;;;5074600;28;20044;-77
2023/10/10 15:23:47;;;;;;;23.02;15.20;;;20.10;99.90;;;;;;5074713;28;20114;-76
2023/10/10 15:26:20;;;;;;;24.33;15.32;;;20.10;99.90;;;;;;5074329;28;20482;-77
2023/10/10 15:28:46;;;;;;;20.38;14.00;;;20.00;99.90;;;;;;5092637;28;20040;-77
2023/10/10 15:31:13;;;;;;;24.48;15.27;;;19.90;99.90;;;;;;5074489;28;20109;-77
2023/10/10 15:33:47;;;;;;;22.98;15.02;;;19.90;99.90;;;;;;5057678;28;20036;-77
2023/10/10 15:36:13;;;;;;;20.55;13.93;;;19.80;99.90;;;;;;5057727;28;20036;-77
2023/10/10 15:38:38;;;;;;;21.45;14.77;;;19.80;99.90;;;;;;5074205;28;20044;-77
2023/10/10 15:41:21;;;;;;;22.42;14.15;;;19.90;99.90;;;;;;5091940;28;20028;-77